Henly, Texas
Current Conditions -  °F | °C
As of 12:15 AM on Wednesday 26 Nov 2014 (Local Time) from KRYW Reporting Station
Clear Clear  
Wind Chill: 46°   Ceiling: Unl
Heat Index: 49°   Visibility: 10mi
Dew Point: 31°   Wind: 7mph
Humidity: 51%   Direction: 240°WSW
Pressure: 30.19"   Gusts: NA
Location:  30.2468°N, 98.1159°W
Report Text: KRYW 260615Z AUTO 24006KT 10SM CLR 09/00 A3019 RMK AO2 T00931005
Loading
Personal Weather Stations






























Interactive Weather Map New forecast layout! Learn more

10-Day Weather Forecast

Advertisements
Track Severe Weather on mobile